sensor_id;sensor_type;location;lat;lon;timestamp;P1;durP1;ratioP1;P2;durP2;ratioP2
2548;SDS011;1284;53.520;10.248;2023-04-03T00:01:30;0.25;;;0.25;;
2548;SDS011;1284;53.520;10.248;2023-04-03T00:03:56;1.00;;;0.40;;
2548;SDS011;1284;53.520;10.248;2023-04-03T00:06:22;0.30;;;0.30;;
2548;SDS011;1284;53.520;10.248;2023-04-03T00:08:48;12.00;;;0.80;;
2548;SDS011;1284;53.520;10.248;2023-04-03T00:11:14;4.25;;;0.50;;
2548;SDS011;1284;53.520;10.248;2023-04-03T00:13:40;0.40;;;0.40;;
2548;SDS011;1284;53.520;10.248;2023-04-03T00:16:10;0.95;;;0.40;;
2548;SDS011;1284;53.520;10.248;2023-04-03T00:18:37;0.57;;;0.57;;
2548;SDS011;1284;53.520;10.248;2023-04-03T00:21:03;0.30;;;0.30;;
2548;SDS011;1284;53.520;10.248;2023-04-03T00:23:29;0.30;;;0.30;;
2548;SDS011;1284;53.520;10.248;2023-04-03T00:25:54;1.20;;;1.02;;
2548;SDS011;1284;53.520;10.248;2023-04-03T00:28:20;0.70;;;0.47;;
2548;SDS011;1284;53.520;10.248;2023-04-03T00:30:48;0.50;;;0.50;;
2548;SDS011;1284;53.520;10.248;2023-04-03T00:33:16;0.20;;;0.20;;
2548;SDS011;1284;53.520;10.248;2023-04-03T00:35:43;0.40;;;0.40;;
2548;SDS011;1284;53.520;10.248;2023-04-03T00:38:08;0.20;;;0.20;;
2548;SDS011;1284;53.520;10.248;2023-04-03T00:40:38;6.82;;;0.60;;
2548;SDS011;1284;53.520;10.248;2023-04-03T00:43:19;0.57;;;0.45;;
2548;SDS011;1284;53.520;10.248;2023-04-03T00:45:48;0.30;;;0.30;;
2548;SDS011;1284;53.520;10.248;2023-04-03T00:48:34;0.20;;;0.20;;
2548;SDS011;1284;53.520;10.248;2023-04-03T00:51:05;0.30;;;0.30;;
2548;SDS011;1284;53.520;10.248;2023-04-03T00:53:37;0.80;;;0.80;;
2548;SDS011;1284;53.520;10.248;2023-04-03T00:56:07;0.40;;;0.40;;
2548;SDS011;1284;53.520;10.248;2023-04-03T00:58:46;0.55;;;0.55;;
2548;SDS011;1284;53.520;10.248;2023-04-03T01:01:17;0.50;;;0.30;;
2548;SDS011;1284;53.520;10.248;2023-04-03T01:03:47;0.57;;;0.57;;
2548;SDS011;1284;53.520;10.248;2023-04-03T01:06:14;0.47;;;0.47;;
2548;SDS011;1284;53.520;10.248;2023-04-03T01:08:43;0.60;;;0.60;;
2548;SDS011;1284;53.520;10.248;2023-04-03T01:11:09;0.52;;;0.52;;
2548;SDS011;1284;53.520;10.248;2023-04-03T01:13:35;0.30;;;0.30;;
2548;SDS011;1284;53.520;10.248;2023-04-03T01:16:03;0.40;;;0.40;;
2548;SDS011;1284;53.520;10.248;2023-04-03T01:18:49;1.42;;;0.60;;
2548;SDS011;1284;53.520;10.248;2023-04-03T01:24:37;1.70;;;0.65;;
2548;SDS011;1284;53.520;10.248;2023-04-03T01:26:41;0.22;;;0.22;;
2548;SDS011;1284;53.520;10.248;2023-04-03T01:29:07;0.40;;;0.40;;
2548;SDS011;1284;53.520;10.248;2023-04-03T01:34:01;0.40;;;0.40;;
2548;SDS011;1284;53.520;10.248;2023-04-03T01:36:30;0.20;;;0.20;;
2548;SDS011;1284;53.520;10.248;2023-04-03T01:38:57;0.10;;;0.10;;
2548;SDS011;1284;53.520;10.248;2023-04-03T01:41:24;0.95;;;0.52;;
2548;SDS011;1284;53.520;10.248;2023-04-03T01:43:53;2.20;;;0.80;;
2548;SDS011;1284;53.520;10.248;2023-04-03T01:46:19;0.30;;;0.30;;
2548;SDS011;1284;53.520;10.248;2023-04-03T01:48:46;1.40;;;0.70;;
2548;SDS011;1284;53.520;10.248;2023-04-03T01:51:12;0.30;;;0.30;;
2548;SDS011;1284;53.520;10.248;2023-04-03T01:53:38;0.35;;;0.35;;
2548;SDS011;1284;53.520;10.248;2023-04-03T01:56:03;0.85;;;0.60;;
2548;SDS011;1284;53.520;10.248;2023-04-03T01:58:31;0.55;;;0.43;;
2548;SDS011;1284;53.520;10.248;2023-04-03T02:00:56;1.60;;;0.70;;
2548;SDS011;1284;53.520;10.248;2023-04-03T02:03:22;0.20;;;0.20;;
2548;SDS011;1284;53.520;10.248;2023-04-03T02:05:47;0.50;;;0.50;;
2548;SDS011;1284;53.520;10.248;2023-04-03T02:08:13;4.50;;;0.38;;
2548;SDS011;1284;53.520;10.248;2023-04-03T02:10:39;0.25;;;0.25;;
2548;SDS011;1284;53.520;10.248;2023-04-03T02:13:05;0.60;;;0.50;;
2548;SDS011;1284;53.520;10.248;2023-04-03T02:15:31;0.30;;;0.30;;
2548;SDS011;1284;53.520;10.248;2023-04-03T02:17:56;0.45;;;0.45;;
2548;SDS011;1284;53.520;10.248;2023-04-03T02:20:22;0.75;;;0.50;;
2548;SDS011;1284;53.520;10.248;2023-04-03T02:22:48;0.30;;;0.30;;
2548;SDS011;1284;53.520;10.248;2023-04-03T02:25:14;0.20;;;0.20;;
2548;SDS011;1284;53.520;10.248;2023-04-03T02:27:39;0.60;;;0.60;;
2548;SDS011;1284;53.520;10.248;2023-04-03T02:30:05;0.30;;;0.30;;
2548;SDS011;1284;53.520;10.248;2023-04-03T02:32:31;0.85;;;0.68;;
2548;SDS011;1284;53.520;10.248;2023-04-03T02:34:57;0.65;;;0.40;;
2548;SDS011;1284;53.520;10.248;2023-04-03T02:37:23;0.75;;;0.65;;
2548;SDS011;1284;53.520;10.248;2023-04-03T02:39:51;0.43;;;0.43;;
2548;SDS011;1284;53.520;10.248;2023-04-03T02:42:16;0.25;;;0.25;;
2548;SDS011;1284;53.520;10.248;2023-04-03T02:44:41;0.20;;;0.20;;
2548;SDS011;1284;53.520;10.248;2023-04-03T02:47:08;0.60;;;0.55;;
2548;SDS011;1284;53.520;10.248;2023-04-03T02:49:34;0.40;;;0.32;;
2548;SDS011;1284;53.520;10.248;2023-04-03T02:51:59;0.52;;;0.40;;
2548;SDS011;1284;53.520;10.248;2023-04-03T02:54:25;0.40;;;0.40;;
2548;SDS011;1284;53.520;10.248;2023-04-03T02:56:55;0.73;;;0.73;;
2548;SDS011;1284;53.520;10.248;2023-04-03T02:59:20;0.20;;;0.20;;
2548;SDS011;1284;53.520;10.248;2023-04-03T03:01:46;0.40;;;0.40;;
2548;SDS011;1284;53.520;10.248;2023-04-03T03:04:12;2.47;;;0.43;;
2548;SDS011;1284;53.520;10.248;2023-04-03T03:06:37;0.25;;;0.25;;
2548;SDS011;1284;53.520;10.248;2023-04-03T03:09:03;0.30;;;0.30;;
2548;SDS011;1284;53.520;10.248;2023-04-03T03:11:29;0.85;;;0.55;;
2548;SDS011;1284;53.520;10.248;2023-04-03T03:13:55;1.00;;;0.63;;
2548;SDS011;1284;53.520;10.248;2023-04-03T03:16:23;0.40;;;0.40;;
2548;SDS011;1284;53.520;10.248;2023-04-03T03:18:48;0.70;;;0.45;;
2548;SDS011;1284;53.520;10.248;2023-04-03T03:21:14;0.30;;;0.30;;
2548;SDS011;1284;53.520;10.248;2023-04-03T03:23:40;0.45;;;0.45;;
2548;SDS011;1284;53.520;10.248;2023-04-03T03:26:06;0.43;;;0.43;;
2548;SDS011;1284;53.520;10.248;2023-04-03T03:28:34;0.30;;;0.30;;
2548;SDS011;1284;53.520;10.248;2023-04-03T03:31:01;0.30;;;0.30;;
2548;SDS011;1284;53.520;10.248;2023-04-03T03:33:28;1.25;;;0.82;;
2548;SDS011;1284;53.520;10.248;2023-04-03T03:35:54;0.50;;;0.50;;
2548;SDS011;1284;53.520;10.248;2023-04-03T03:38:20;0.15;;;0.15;;
2548;SDS011;1284;53.520;10.248;2023-04-03T03:40:47;1.55;;;0.75;;
2548;SDS011;1284;53.520;10.248;2023-04-03T03:43:18;0.35;;;0.35;;
2548;SDS011;1284;53.520;10.248;2023-04-03T03:45:49;0.35;;;0.35;;
2548;SDS011;1284;53.520;10.248;2023-04-03T03:48:15;0.30;;;0.30;;
2548;SDS011;1284;53.520;10.248;2023-04-03T03:50:41;0.28;;;0.28;;
2548;SDS011;1284;53.520;10.248;2023-04-03T03:53:06;0.98;;;0.63;;
2548;SDS011;1284;53.520;10.248;2023-04-03T03:55:32;0.50;;;0.50;;
2548;SDS011;1284;53.520;10.248;2023-04-03T03:57:57;0.30;;;0.30;;
2548;SDS011;1284;53.520;10.248;2023-04-03T04:00:24;0.95;;;0.50;;
2548;SDS011;1284;53.520;10.248;2023-04-03T04:02:54;0.60;;;0.60;;
2548;SDS011;1284;53.520;10.248;2023-04-03T04:05:22;0.60;;;0.60;;
2548;SDS011;1284;53.520;10.248;2023-04-03T04:07:48;0.20;;;0.20;;
2548;SDS011;1284;53.520;10.248;2023-04-03T04:10:13;1.13;;;0.47;;
2548;SDS011;1284;53.520;10.248;2023-04-03T04:12:40;0.20;;;0.20;;
2548;SDS011;1284;53.520;10.248;2023-04-03T04:15:06;0.20;;;0.20;;
2548;SDS011;1284;53.520;10.248;2023-04-03T04:17:32;0.35;;;0.35;;
2548;SDS011;1284;53.520;10.248;2023-04-03T04:20:00;0.50;;;0.50;;
2548;SDS011;1284;53.520;10.248;2023-04-03T04:22:26;0.30;;;0.30;;
2548;SDS011;1284;53.520;10.248;2023-04-03T04:24:52;0.45;;;0.45;;
2548;SDS011;1284;53.520;10.248;2023-04-03T04:27:18;0.30;;;0.30;;
2548;SDS011;1284;53.520;10.248;2023-04-03T04:29:43;0.30;;;0.30;;
2548;SDS011;1284;53.520;10.248;2023-04-03T04:32:09;0.43;;;0.43;;
2548;SDS011;1284;53.520;10.248;2023-04-03T04:34:35;0.60;;;0.60;;
2548;SDS011;1284;53.520;10.248;2023-04-03T04:37:01;0.25;;;0.25;;
2548;SDS011;1284;53.520;10.248;2023-04-03T04:39:27;0.50;;;0.50;;
2548;SDS011;1284;53.520;10.248;2023-04-03T04:41:55;0.30;;;0.30;;
2548;SDS011;1284;53.520;10.248;2023-04-03T04:44:21;0.30;;;0.30;;
2548;SDS011;1284;53.520;10.248;2023-04-03T04:46:47;0.98;;;0.98;;
2548;SDS011;1284;53.520;10.248;2023-04-03T04:49:12;0.38;;;0.38;;
2548;SDS011;1284;53.520;10.248;2023-04-03T04:51:38;0.20;;;0.20;;
2548;SDS011;1284;53.520;10.248;2023-04-03T04:54:03;0.20;;;0.20;;
2548;SDS011;1284;53.520;10.248;2023-04-03T04:56:31;0.32;;;0.32;;
2548;SDS011;1284;53.520;10.248;2023-04-03T04:58:58;0.28;;;0.28;;
2548;SDS011;1284;53.520;10.248;2023-04-03T05:01:24;0.50;;;0.50;;
2548;SDS011;1284;53.520;10.248;2023-04-03T05:03:56;1.27;;;0.68;;
2548;SDS011;1284;53.520;10.248;2023-04-03T05:06:23;0.30;;;0.30;;
2548;SDS011;1284;53.520;10.248;2023-04-03T05:08:49;0.38;;;0.38;;
2548;SDS011;1284;53.520;10.248;2023-04-03T05:11:15;0.85;;;0.40;;
2548;SDS011;1284;53.520;10.248;2023-04-03T05:13:43;1.30;;;0.77;;
2548;SDS011;1284;53.520;10.248;2023-04-03T05:16:08;0.52;;;0.45;;
2548;SDS011;1284;53.520;10.248;2023-04-03T05:18:34;0.40;;;0.40;;
2548;SDS011;1284;53.520;10.248;2023-04-03T05:21:05;0.60;;;0.60;;
2548;SDS011;1284;53.520;10.248;2023-04-03T05:23:30;0.30;;;0.30;;
2548;SDS011;1284;53.520;10.248;2023-04-03T05:25:58;0.70;;;0.60;;
2548;SDS011;1284;53.520;10.248;2023-04-03T05:28:25;0.63;;;0.63;;
2548;SDS011;1284;53.520;10.248;2023-04-03T05:30:53;0.60;;;0.60;;
2548;SDS011;1284;53.520;10.248;2023-04-03T05:33:20;0.43;;;0.43;;
2548;SDS011;1284;53.520;10.248;2023-04-03T05:35:50;0.50;;;0.50;;
2548;SDS011;1284;53.520;10.248;2023-04-03T05:38:20;1.45;;;1.20;;
2548;SDS011;1284;53.520;10.248;2023-04-03T05:40:46;0.57;;;0.57;;
2548;SDS011;1284;53.520;10.248;2023-04-03T05:43:11;0.68;;;0.68;;
2548;SDS011;1284;53.520;10.248;2023-04-03T05:45:40;0.40;;;0.40;;
2548;SDS011;1284;53.520;10.248;2023-04-03T05:48:05;0.75;;;0.75;;
2548;SDS011;1284;53.520;10.248;2023-04-03T05:50:31;0.65;;;0.65;;
2548;SDS011;1284;53.520;10.248;2023-04-03T05:52:57;0.50;;;0.50;;
2548;SDS011;1284;53.520;10.248;2023-04-03T05:55:26;0.60;;;0.60;;
2548;SDS011;1284;53.520;10.248;2023-04-03T05:57:52;0.40;;;0.28;;
2548;SDS011;1284;53.520;10.248;2023-04-03T06:00:17;0.30;;;0.30;;
2548;SDS011;1284;53.520;10.248;2023-04-03T06:02:52;0.60;;;0.47;;
2548;SDS011;1284;53.520;10.248;2023-04-03T06:05:22;0.40;;;0.40;;
2548;SDS011;1284;53.520;10.248;2023-04-03T06:07:49;0.35;;;0.35;;
2548;SDS011;1284;53.520;10.248;2023-04-03T06:10:15;0.95;;;0.82;;
2548;SDS011;1284;53.520;10.248;2023-04-03T06:12:40;1.10;;;0.60;;
2548;SDS011;1284;53.520;10.248;2023-04-03T06:15:07;0.47;;;0.47;;
2548;SDS011;1284;53.520;10.248;2023-04-03T06:17:35;0.82;;;0.80;;
2548;SDS011;1284;53.520;10.248;2023-04-03T06:20:00;0.30;;;0.30;;
2548;SDS011;1284;53.520;10.248;2023-04-03T06:22:26;1.15;;;0.63;;
2548;SDS011;1284;53.520;10.248;2023-04-03T06:24:55;0.60;;;0.60;;
2548;SDS011;1284;53.520;10.248;2023-04-03T06:27:21;0.40;;;0.40;;
2548;SDS011;1284;53.520;10.248;2023-04-03T06:29:46;0.38;;;0.38;;
2548;SDS011;1284;53.520;10.248;2023-04-03T06:32:13;0.57;;;0.57;;
2548;SDS011;1284;53.520;10.248;2023-04-03T06:34:38;0.40;;;0.40;;
2548;SDS011;1284;53.520;10.248;2023-04-03T06:37:04;0.90;;;0.65;;
2548;SDS011;1284;53.520;10.248;2023-04-03T06:39:30;0.85;;;0.68;;
2548;SDS011;1284;53.520;10.248;2023-04-03T06:41:55;0.38;;;0.38;;
2548;SDS011;1284;53.520;10.248;2023-04-03T06:44:34;0.43;;;0.43;;
2548;SDS011;1284;53.520;10.248;2023-04-03T06:47:00;0.57;;;0.57;;
2548;SDS011;1284;53.520;10.248;2023-04-03T06:49:26;1.17;;;0.38;;
2548;SDS011;1284;53.520;10.248;2023-04-03T06:51:51;0.30;;;0.30;;
2548;SDS011;1284;53.520;10.248;2023-04-03T06:54:17;0.95;;;0.60;;
2548;SDS011;1284;53.520;10.248;2023-04-03T06:56:43;2.28;;;0.73;;
2548;SDS011;1284;53.520;10.248;2023-04-03T06:59:09;5.28;;;0.63;;
2548;SDS011;1284;53.520;10.248;2023-04-03T07:01:37;0.63;;;0.50;;
2548;SDS011;1284;53.520;10.248;2023-04-03T07:04:02;0.52;;;0.52;;
2548;SDS011;1284;53.520;10.248;2023-04-03T07:06:28;0.70;;;0.40;;
2548;SDS011;1284;53.520;10.248;2023-04-03T07:08:54;0.35;;;0.35;;
2548;SDS011;1284;53.520;10.248;2023-04-03T07:11:20;0.60;;;0.40;;
2548;SDS011;1284;53.520;10.248;2023-04-03T07:13:45;0.43;;;0.43;;
2548;SDS011;1284;53.520;10.248;2023-04-03T07:16:14;0.30;;;0.30;;
2548;SDS011;1284;53.520;10.248;2023-04-03T07:18:39;0.40;;;0.40;;
2548;SDS011;1284;53.520;10.248;2023-04-03T07:21:05;0.38;;;0.38;;
2548;SDS011;1284;53.520;10.248;2023-04-03T07:23:31;0.65;;;0.60;;
2548;SDS011;1284;53.520;10.248;2023-04-03T07:25:56;0.40;;;0.40;;
2548;SDS011;1284;53.520;10.248;2023-04-03T07:28:22;0.30;;;0.30;;
2548;SDS011;1284;53.520;10.248;2023-04-03T07:30:52;0.47;;;0.43;;
2548;SDS011;1284;53.520;10.248;2023-04-03T07:33:19;0.60;;;0.60;;
2548;SDS011;1284;53.520;10.248;2023-04-03T07:35:46;0.30;;;0.30;;
2548;SDS011;1284;53.520;10.248;2023-04-03T07:38:12;0.65;;;0.47;;
2548;SDS011;1284;53.520;10.248;2023-04-03T07:40:38;1.85;;;0.52;;
2548;SDS011;1284;53.520;10.248;2023-04-03T07:43:04;0.50;;;0.50;;
2548;SDS011;1284;53.520;10.248;2023-04-03T07:45:30;0.40;;;0.30;;
2548;SDS011;1284;53.520;10.248;2023-04-03T07:47:56;0.17;;;0.17;;
2548;SDS011;1284;53.520;10.248;2023-04-03T07:50:22;0.10;;;0.10;;
2548;SDS011;1284;53.520;10.248;2023-04-03T07:52:47;0.10;;;0.10;;
2548;SDS011;1284;53.520;10.248;2023-04-03T07:55:14;0.25;;;0.20;;
2548;SDS011;1284;53.520;10.248;2023-04-03T07:57:39;0.35;;;0.35;;
2548;SDS011;1284;53.520;10.248;2023-04-03T08:00:06;0.40;;;0.40;;
2548;SDS011;1284;53.520;10.248;2023-04-03T08:02:40;0.20;;;0.20;;
2548;SDS011;1284;53.520;10.248;2023-04-03T08:05:05;0.20;;;0.20;;
2548;SDS011;1284;53.520;10.248;2023-04-03T08:07:31;2.53;;;0.20;;
2548;SDS011;1284;53.520;10.248;2023-04-03T08:09:56;0.15;;;0.15;;
2548;SDS011;1284;53.520;10.248;2023-04-03T08:12:22;0.10;;;0.10;;
2548;SDS011;1284;53.520;10.248;2023-04-03T08:14:47;0.10;;;0.10;;
2548;SDS011;1284;53.520;10.248;2023-04-03T08:17:13;2.40;;;0.15;;
2548;SDS011;1284;53.520;10.248;2023-04-03T08:19:39;0.10;;;0.10;;
2548;SDS011;1284;53.520;10.248;2023-04-03T08:22:05;0.10;;;0.10;;
2548;SDS011;1284;53.520;10.248;2023-04-03T08:24:31;0.45;;;0.20;;
2548;SDS011;1284;53.520;10.248;2023-04-03T08:26:59;0.22;;;0.22;;
2548;SDS011;1284;53.520;10.248;2023-04-03T08:29:25;0.20;;;0.20;;
2548;SDS011;1284;53.520;10.248;2023-04-03T08:31:50;0.17;;;0.17;;
2548;SDS011;1284;53.520;10.248;2023-04-03T08:34:16;0.15;;;0.15;;
2548;SDS011;1284;53.520;10.248;2023-04-03T08:36:43;0.10;;;0.10;;
2548;SDS011;1284;53.520;10.248;2023-04-03T08:39:11;0.10;;;0.10;;
2548;SDS011;1284;53.520;10.248;2023-04-03T08:47:10;0.00;;;0.00;;
2548;SDS011;1284;53.520;10.248;2023-04-03T08:49:49;0.05;;;0.05;;
2548;SDS011;1284;53.520;10.248;2023-04-03T08:52:19;0.05;;;0.03;;
2548;SDS011;1284;53.520;10.248;2023-04-03T08:54:52;0.05;;;0.05;;
2548;SDS011;1284;53.520;10.248;2023-04-03T08:57:30;0.00;;;0.00;;
2548;SDS011;1284;53.520;10.248;2023-04-03T09:00:01;0.10;;;0.10;;
2548;SDS011;1284;53.520;10.248;2023-04-03T09:02:33;0.13;;;0.08;;
2548;SDS011;1284;53.520;10.248;2023-04-03T09:05:16;0.32;;;0.10;;
2548;SDS011;1284;53.520;10.248;2023-04-03T09:10:42;0.13;;;0.13;;
2548;SDS011;1284;53.520;10.248;2023-04-03T09:13:11;0.60;;;0.10;;
2548;SDS011;1284;53.520;10.248;2023-04-03T09:16:01;1.92;;;0.10;;
2548;SDS011;1284;53.520;10.248;2023-04-03T09:18:30;0.10;;;0.00;;
2548;SDS011;1284;53.520;10.248;2023-04-03T09:21:17;0.03;;;0.03;;
2548;SDS011;1284;53.520;10.248;2023-04-03T09:23:50;0.25;;;0.10;;
2548;SDS011;1284;53.520;10.248;2023-04-03T09:29:06;0.00;;;0.00;;
2548;SDS011;1284;53.520;10.248;2023-04-03T09:31:37;0.10;;;0.10;;
2548;SDS011;1284;53.520;10.248;2023-04-03T09:34:06;0.10;;;0.10;;
2548;SDS011;1284;53.520;10.248;2023-04-03T09:36:46;0.20;;;0.08;;
2548;SDS011;1284;53.520;10.248;2023-04-03T09:39:15;0.20;;;0.20;;
2548;SDS011;1284;53.520;10.248;2023-04-03T09:47:46;0.00;;;0.00;;
2548;SDS011;1284;53.520;10.248;2023-04-03T09:52:40;0.10;;;0.10;;
2548;SDS011;1284;53.520;10.248;2023-04-03T09:55:08;0.22;;;0.10;;
2548;SDS011;1284;53.520;10.248;2023-04-03T09:57:49;0.47;;;0.17;;
2548;SDS011;1284;53.520;10.248;2023-04-03T10:00:23;0.10;;;0.10;;
2548;SDS011;1284;53.520;10.248;2023-04-03T10:02:55;2.65;;;0.10;;
2548;SDS011;1284;53.520;10.248;2023-04-03T10:05:37;0.22;;;0.00;;
2548;SDS011;1284;53.520;10.248;2023-04-03T10:08:07;0.00;;;0.00;;
2548;SDS011;1284;53.520;10.248;2023-04-03T10:10:33;0.17;;;0.10;;
2548;SDS011;1284;53.520;10.248;2023-04-03T10:13:15;0.00;;;0.00;;
2548;SDS011;1284;53.520;10.248;2023-04-03T10:15:56;0.40;;;0.20;;
2548;SDS011;1284;53.520;10.248;2023-04-03T10:18:32;0.10;;;0.10;;
2548;SDS011;1284;53.520;10.248;2023-04-03T10:23:44;0.00;;;0.00;;
2548;SDS011;1284;53.520;10.248;2023-04-03T10:32:22;0.20;;;0.10;;
2548;SDS011;1284;53.520;10.248;2023-04-03T10:40:20;0.25;;;0.10;;
2548;SDS011;1284;53.520;10.248;2023-04-03T10:50:51;0.73;;;0.10;;
2548;SDS011;1284;53.520;10.248;2023-04-03T10:56:14;0.00;;;0.00;;
2548;SDS011;1284;53.520;10.248;2023-04-03T11:01:44;0.08;;;0.08;;
2548;SDS011;1284;53.520;10.248;2023-04-03T11:04:13;1.05;;;0.08;;
2548;SDS011;1284;53.520;10.248;2023-04-03T11:06:45;0.30;;;0.20;;
2548;SDS011;1284;53.520;10.248;2023-04-03T11:09:24;0.28;;;0.10;;
2548;SDS011;1284;53.520;10.248;2023-04-03T11:11:54;0.05;;;0.03;;
2548;SDS011;1284;53.520;10.248;2023-04-03T11:14:26;0.05;;;0.05;;
2548;SDS011;1284;53.520;10.248;2023-04-03T11:16:59;0.30;;;0.20;;
2548;SDS011;1284;53.520;10.248;2023-04-03T11:19:41;0.10;;;0.10;;
2548;SDS011;1284;53.520;10.248;2023-04-03T11:25:37;0.00;;;0.00;;
2548;SDS011;1284;53.520;10.248;2023-04-03T11:27:45;1.85;;;0.10;;
2548;SDS011;1284;53.520;10.248;2023-04-03T11:30:16;0.10;;;0.10;;
2548;SDS011;1284;53.520;10.248;2023-04-03T11:35:27;0.20;;;0.15;;
2548;SDS011;1284;53.520;10.248;2023-04-03T11:37:53;0.00;;;0.00;;
2548;SDS011;1284;53.520;10.248;2023-04-03T11:58:19;0.00;;;0.00;;
2548;SDS011;1284;53.520;10.248;2023-04-03T12:11:32;0.10;;;0.10;;
2548;SDS011;1284;53.520;10.248;2023-04-03T12:19:13;0.13;;;0.10;;
2548;SDS011;1284;53.520;10.248;2023-04-03T12:24:35;0.10;;;0.10;;
2548;SDS011;1284;53.520;10.248;2023-04-03T12:40:42;0.10;;;0.10;;
2548;SDS011;1284;53.520;10.248;2023-04-03T12:46:23;0.00;;;0.00;;
2548;SDS011;1284;53.520;10.248;2023-04-03T12:48:52;0.00;;;0.00;;
2548;SDS011;1284;53.520;10.248;2023-04-03T12:51:38;0.00;;;0.00;;
2548;SDS011;1284;53.520;10.248;2023-04-03T12:54:13;0.10;;;0.10;;
2548;SDS011;1284;53.520;10.248;2023-04-03T12:57:09;2.38;;;0.10;;
2548;SDS011;1284;53.520;10.248;2023-04-03T12:59:35;0.85;;;0.17;;
2548;SDS011;1284;53.520;10.248;2023-04-03T13:02:10;0.00;;;0.00;;
2548;SDS011;1284;53.520;10.248;2023-04-03T13:04:44;0.00;;;0.00;;
2548;SDS011;1284;53.520;10.248;2023-04-03T13:07:30;0.00;;;0.00;;
2548;SDS011;1284;53.520;10.248;2023-04-03T13:09:59;0.08;;;0.08;;
2548;SDS011;1284;53.520;10.248;2023-04-03T13:12:28;0.22;;;0.10;;
2548;SDS011;1284;53.520;10.248;2023-04-03T13:15:12;0.00;;;0.00;;
2548;SDS011;1284;53.520;10.248;2023-04-03T13:17:44;0.00;;;0.00;;
2548;SDS011;1284;53.520;10.248;2023-04-03T13:20:14;0.10;;;0.10;;
2548;SDS011;1284;53.520;10.248;2023-04-03T13:23:12;0.05;;;0.03;;
2548;SDS011;1284;53.520;10.248;2023-04-03T13:25:41;0.15;;;0.10;;
2548;SDS011;1284;53.520;10.248;2023-04-03T13:28:13;0.00;;;0.00;;
2548;SDS011;1284;53.520;10.248;2023-04-03T13:30:56;0.22;;;0.10;;
2548;SDS011;1284;53.520;10.248;2023-04-03T13:33:24;1.35;;;0.10;;
2548;SDS011;1284;53.520;10.248;2023-04-03T13:36:00;0.10;;;0.08;;
2548;SDS011;1284;53.520;10.248;2023-04-03T13:38:57;0.10;;;0.08;;
2548;SDS011;1284;53.520;10.248;2023-04-03T13:41:26;0.10;;;0.00;;
2548;SDS011;1284;53.520;10.248;2023-04-03T13:43:56;0.08;;;0.03;;
2548;SDS011;1284;53.520;10.248;2023-04-03T13:46:41;0.10;;;0.10;;
2548;SDS011;1284;53.520;10.248;2023-04-03T13:49:17;0.00;;;0.00;;
2548;SDS011;1284;53.520;10.248;2023-04-03T13:51:45;0.03;;;0.00;;
2548;SDS011;1284;53.520;10.248;2023-04-03T13:54:23;0.10;;;0.03;;
2548;SDS011;1284;53.520;10.248;2023-04-03T13:56:55;0.13;;;0.03;;
2548;SDS011;1284;53.520;10.248;2023-04-03T14:06:57;0.00;;;0.00;;
2548;SDS011;1284;53.520;10.248;2023-04-03T14:09:24;0.00;;;0.00;;
2548;SDS011;1284;53.520;10.248;2023-04-03T14:11:53;0.10;;;0.10;;
2548;SDS011;1284;53.520;10.248;2023-04-03T14:14:23;0.20;;;0.20;;
2548;SDS011;1284;53.520;10.248;2023-04-03T14:16:53;0.75;;;0.30;;
2548;SDS011;1284;53.520;10.248;2023-04-03T14:19:27;0.00;;;0.00;;
2548;SDS011;1284;53.520;10.248;2023-04-03T14:21:55;0.10;;;0.00;;
2548;SDS011;1284;53.520;10.248;2023-04-03T14:24:21;0.08;;;0.08;;
2548;SDS011;1284;53.520;10.248;2023-04-03T14:26:51;0.10;;;0.00;;
2548;SDS011;1284;53.520;10.248;2023-04-03T14:29:18;0.05;;;0.05;;
2548;SDS011;1284;53.520;10.248;2023-04-03T14:31:45;0.10;;;0.08;;
2548;SDS011;1284;53.520;10.248;2023-04-03T14:34:12;0.30;;;0.10;;
2548;SDS011;1284;53.520;10.248;2023-04-03T14:36:39;0.03;;;0.03;;
2548;SDS011;1284;53.520;10.248;2023-04-03T14:39:07;0.10;;;0.10;;
2548;SDS011;1284;53.520;10.248;2023-04-03T14:41:33;0.10;;;0.10;;
2548;SDS011;1284;53.520;10.248;2023-04-03T14:43:59;0.00;;;0.00;;
2548;SDS011;1284;53.520;10.248;2023-04-03T14:46:27;0.00;;;0.00;;
2548;SDS011;1284;53.520;10.248;2023-04-03T14:48:55;0.00;;;0.00;;
2548;SDS011;1284;53.520;10.248;2023-04-03T14:51:23;0.30;;;0.00;;
2548;SDS011;1284;53.520;10.248;2023-04-03T14:53:49;1.25;;;0.10;;
2548;SDS011;1284;53.520;10.248;2023-04-03T14:56:19;0.10;;;0.10;;
2548;SDS011;1284;53.520;10.248;2023-04-03T14:58:48;0.00;;;0.00;;
2548;SDS011;1284;53.520;10.248;2023-04-03T15:01:19;0.00;;;0.00;;
2548;SDS011;1284;53.520;10.248;2023-04-03T15:03:44;0.52;;;0.52;;
2548;SDS011;1284;53.520;10.248;2023-04-03T15:06:13;0.43;;;0.20;;
2548;SDS011;1284;53.520;10.248;2023-04-03T15:08:39;0.40;;;0.15;;
2548;SDS011;1284;53.520;10.248;2023-04-03T15:11:08;0.10;;;0.10;;
2548;SDS011;1284;53.520;10.248;2023-04-03T15:13:34;0.25;;;0.08;;
2548;SDS011;1284;53.520;10.248;2023-04-03T15:16:04;0.08;;;0.00;;
2548;SDS011;1284;53.520;10.248;2023-04-03T15:18:31;0.60;;;0.20;;
2548;SDS011;1284;53.520;10.248;2023-04-03T15:21:01;0.10;;;0.00;;
2548;SDS011;1284;53.520;10.248;2023-04-03T15:23:26;0.10;;;0.08;;
2548;SDS011;1284;53.520;10.248;2023-04-03T15:25:53;0.20;;;0.10;;
2548;SDS011;1284;53.520;10.248;2023-04-03T15:30:50;0.25;;;0.10;;
2548;SDS011;1284;53.520;10.248;2023-04-03T15:33:16;0.35;;;0.20;;
2548;SDS011;1284;53.520;10.248;2023-04-03T15:35:42;0.17;;;0.05;;
2548;SDS011;1284;53.520;10.248;2023-04-03T15:38:08;0.50;;;0.20;;
2548;SDS011;1284;53.520;10.248;2023-04-03T15:40:34;0.25;;;0.25;;
2548;SDS011;1284;53.520;10.248;2023-04-03T15:42:59;0.20;;;0.20;;
2548;SDS011;1284;53.520;10.248;2023-04-03T15:45:25;1.05;;;0.25;;
2548;SDS011;1284;53.520;10.248;2023-04-03T15:47:54;0.10;;;0.10;;
2548;SDS011;1284;53.520;10.248;2023-04-03T15:50:20;0.00;;;0.00;;
2548;SDS011;1284;53.520;10.248;2023-04-03T15:52:47;2.38;;;0.05;;
2548;SDS011;1284;53.520;10.248;2023-04-03T15:55:16;0.47;;;0.10;;
2548;SDS011;1284;53.520;10.248;2023-04-03T15:57:42;0.00;;;0.00;;
2548;SDS011;1284;53.520;10.248;2023-04-03T16:00:07;0.20;;;0.20;;
2548;SDS011;1284;53.520;10.248;2023-04-03T16:02:33;0.40;;;0.40;;
2548;SDS011;1284;53.520;10.248;2023-04-03T16:04:59;0.10;;;0.00;;
2548;SDS011;1284;53.520;10.248;2023-04-03T16:07:25;0.10;;;0.10;;
2548;SDS011;1284;53.520;10.248;2023-04-03T16:09:51;0.28;;;0.13;;
2548;SDS011;1284;53.520;10.248;2023-04-03T16:12:17;0.20;;;0.20;;
2548;SDS011;1284;53.520;10.248;2023-04-03T16:14:42;0.20;;;0.10;;
2548;SDS011;1284;53.520;10.248;2023-04-03T16:17:08;0.68;;;0.60;;
2548;SDS011;1284;53.520;10.248;2023-04-03T16:19:33;0.25;;;0.25;;
2548;SDS011;1284;53.520;10.248;2023-04-03T16:21:59;0.00;;;0.00;;
2548;SDS011;1284;53.520;10.248;2023-04-03T16:24:24;0.15;;;0.15;;
2548;SDS011;1284;53.520;10.248;2023-04-03T16:26:50;0.20;;;0.15;;
2548;SDS011;1284;53.520;10.248;2023-04-03T16:29:15;0.20;;;0.20;;
2548;SDS011;1284;53.520;10.248;2023-04-03T16:31:41;0.10;;;0.10;;
2548;SDS011;1284;53.520;10.248;2023-04-03T16:34:07;0.20;;;0.20;;
2548;SDS011;1284;53.520;10.248;2023-04-03T16:36:32;0.10;;;0.10;;
2548;SDS011;1284;53.520;10.248;2023-04-03T16:38:57;0.20;;;0.10;;
2548;SDS011;1284;53.520;10.248;2023-04-03T16:41:23;0.35;;;0.30;;
2548;SDS011;1284;53.520;10.248;2023-04-03T16:43:48;0.55;;;0.25;;
2548;SDS011;1284;53.520;10.248;2023-04-03T16:46:15;0.35;;;0.25;;
2548;SDS011;1284;53.520;10.248;2023-04-03T16:48:40;0.30;;;0.20;;
2548;SDS011;1284;53.520;10.248;2023-04-03T16:51:06;0.10;;;0.10;;
2548;SDS011;1284;53.520;10.248;2023-04-03T16:53:31;2.28;;;0.30;;
2548;SDS011;1284;53.520;10.248;2023-04-03T16:55:57;0.22;;;0.20;;
2548;SDS011;1284;53.520;10.248;2023-04-03T16:58:23;0.30;;;0.28;;
2548;SDS011;1284;53.520;10.248;2023-04-03T17:00:49;0.10;;;0.10;;
2548;SDS011;1284;53.520;10.248;2023-04-03T17:03:15;1.98;;;0.30;;
2548;SDS011;1284;53.520;10.248;2023-04-03T17:05:41;0.90;;;0.30;;
2548;SDS011;1284;53.520;10.248;2023-04-03T17:08:06;0.10;;;0.10;;
2548;SDS011;1284;53.520;10.248;2023-04-03T17:10:31;0.20;;;0.20;;